Time;durP1;ratioP1;P1;durP2;ratioP2;P2;SDS_P1;SDS_P2;PMS_P1;PMS_P2;Temp;Humidity;BMP_temperature;BMP_pressure;BME280_temperature;BME280_humidity;BME280_pressure;Samples;Min_cycle;Max_cycle;Signal;HPM_P1;HPM_P2
2021/11/19 00:02:17;;;;;;;;;26.75;24.75;;;;;;;;5037485;28;45491;-72
2021/11/19 00:04:43;;;;;;;;;29.00;28.25;;;;;;;;5036379;28;45495;-72
2021/11/19 00:07:09;;;;;;;;;28.50;28.00;;;;;;;;5035617;28;45410;-73
2021/11/19 00:09:35;;;;;;;;;29.00;25.75;;;;;;;;5036797;28;45396;-72
2021/11/19 00:12:00;;;;;;;;;30.00;25.50;;;;;;;;5036939;28;45587;-73
2021/11/19 00:14:26;;;;;;;;;32.50;29.00;;;;;;;;5019410;28;45340;-73
2021/11/19 00:16:55;;;;;;;;;30.25;28.00;;;;;;;;5036154;28;46409;-74
2021/11/19 00:19:20;;;;;;;;;31.75;29.50;;;;;;;;5036338;28;45405;-73
2021/11/19 00:21:45;;;;;;;;;30.50;26.75;;;;;;;;5036550;28;45456;-73
2021/11/19 00:24:11;;;;;;;;;29.25;26.00;;;;;;;;5036220;28;45161;-72
2021/11/19 00:26:38;;;;;;;;;30.50;28.00;;;;;;;;5036886;28;47667;-73
2021/11/19 00:29:03;;;;;;;;;27.75;20.75;;;;;;;;5036100;28;45483;-73
2021/11/19 00:31:28;;;;;;;;;32.75;27.75;;;;;;;;5036109;28;45491;-72
2021/11/19 00:33:55;;;;;;;;;28.25;25.00;;;;;;;;5035858;28;45482;-72
2021/11/19 00:36:21;;;;;;;;;30.50;26.25;;;;;;;;5036169;28;46889;-72
2021/11/19 00:38:47;;;;;;;;;28.00;22.50;;;;;;;;5036684;28;45371;-73
2021/11/19 00:41:12;;;;;;;;;26.75;21.00;;;;;;;;5036621;28;45465;-73
2021/11/19 00:43:38;;;;;;;;;26.25;23.25;;;;;;;;5035905;28;45435;-73
2021/11/19 00:46:04;;;;;;;;;23.50;20.25;;;;;;;;5036068;28;46663;-73
2021/11/19 00:48:31;;;;;;;;;26.25;25.00;;;;;;;;5035748;28;45563;-73
2021/11/19 00:51:17;;;;;;;;;24.75;23.25;;;;;;;;5036325;28;46524;-72
2021/11/19 00:53:45;;;;;;;;;20.50;18.00;;;;;;;;5032452;28;45611;-73
2021/11/19 00:56:15;;;;;;;;;20.75;18.50;;;;;;;;5036368;28;45403;-73
2021/11/19 00:58:41;;;;;;;;;16.75;16.50;;;;;;;;5036019;28;45433;-72
2021/11/19 01:01:08;;;;;;;;;26.50;22.25;;;;;;;;5035784;28;45333;-71
2021/11/19 01:03:33;;;;;;;;;29.00;21.50;;;;;;;;5035527;28;45482;-72
2021/11/19 01:05:58;;;;;;;;;25.75;25.00;;;;;;;;5035492;28;46303;-72
2021/11/19 01:08:24;;;;;;;;;24.75;24.25;;;;;;;;5036447;28;45485;-72
2021/11/19 01:10:51;;;;;;;;;22.50;21.00;;;;;;;;5036155;28;45314;-72
2021/11/19 01:13:17;;;;;;;;;30.75;27.25;;;;;;;;5036000;28;45447;-72
2021/11/19 01:15:44;;;;;;;;;30.25;26.75;;;;;;;;5035935;28;45653;-72
2021/11/19 01:18:18;;;;;;;;;26.75;22.50;;;;;;;;5018445;28;45389;-72
2021/11/19 01:20:48;;;;;;;;;29.00;23.75;;;;;;;;5032721;28;45307;-73
2021/11/19 01:23:15;;;;;;;;;24.75;24.75;;;;;;;;5035026;28;45489;-72
2021/11/19 01:25:44;;;;;;;;;31.00;24.25;;;;;;;;5035315;28;46287;-72
2021/11/19 01:28:10;;;;;;;;;27.50;24.50;;;;;;;;5035134;28;45367;-73
2021/11/19 01:30:37;;;;;;;;;28.75;24.50;;;;;;;;5035197;28;45319;-72
2021/11/19 01:33:03;;;;;;;;;37.00;26.25;;;;;;;;5035600;28;45618;-72
2021/11/19 01:35:28;;;;;;;;;32.00;26.75;;;;;;;;5028390;28;45720;-73
2021/11/19 01:37:53;;;;;;;;;29.75;24.00;;;;;;;;5034899;28;45415;-73
2021/11/19 01:40:21;;;;;;;;;26.75;24.00;;;;;;;;5034574;28;45453;-73
2021/11/19 01:42:52;;;;;;;;;23.25;19.25;;;;;;;;5035270;28;45435;-73
2021/11/19 01:45:19;;;;;;;;;25.00;23.50;;;;;;;;5034485;28;45467;-73
2021/11/19 01:47:51;;;;;;;;;28.50;23.00;;;;;;;;5034834;28;45489;-73
2021/11/19 01:50:22;;;;;;;;;25.25;23.25;;;;;;;;5034914;28;45385;-72
2021/11/19 01:52:50;;;;;;;;;21.50;19.00;;;;;;;;5034883;28;45430;-72
2021/11/19 01:55:17;;;;;;;;;25.00;19.50;;;;;;;;5034561;28;46416;-73
2021/11/19 01:57:48;;;;;;;;;23.00;22.25;;;;;;;;5016691;28;46085;-73
2021/11/19 02:00:18;;;;;;;;;27.00;22.25;;;;;;;;5034614;28;45320;-73
2021/11/19 02:02:45;;;;;;;;;22.50;21.00;;;;;;;;5034767;28;45531;-73
2021/11/19 02:05:17;;;;;;;;;25.25;21.75;;;;;;;;5033991;28;45941;-72
2021/11/19 02:07:46;;;;;;;;;21.00;20.50;;;;;;;;5034726;28;45457;-73
2021/11/19 02:10:32;;;;;;;;;25.00;21.00;;;;;;;;5033839;28;45535;-73
2021/11/19 02:13:11;;;;;;;;;24.75;20.00;;;;;;;;5034196;28;45979;-73
2021/11/19 02:15:41;;;;;;;;;20.25;18.25;;;;;;;;5034281;28;46077;-72
2021/11/19 02:18:11;;;;;;;;;28.75;23.00;;;;;;;;5018989;28;45515;-73
2021/11/19 02:20:38;;;;;;;;;19.50;18.25;;;;;;;;5031251;28;45322;-72
2021/11/19 02:23:09;;;;;;;;;24.75;21.75;;;;;;;;5034052;28;45510;-73
2021/11/19 02:25:37;;;;;;;;;24.00;22.75;;;;;;;;5034215;28;46197;-73
2021/11/19 02:28:04;;;;;;;;;28.75;24.25;;;;;;;;5034242;28;45407;-73
2021/11/19 02:30:33;;;;;;;;;27.25;22.50;;;;;;;;5033658;28;45429;-73
2021/11/19 02:33:07;;;;;;;;;27.00;21.50;;;;;;;;5034391;28;45608;-73
2021/11/19 02:35:34;;;;;;;;;27.00;20.50;;;;;;;;5034688;28;48156;-72
2021/11/19 02:38:05;;;;;;;;;27.75;23.50;;;;;;;;5034017;28;45387;-73
2021/11/19 02:40:32;;;;;;;;;23.75;22.50;;;;;;;;5033834;28;45441;-73
2021/11/19 02:43:00;;;;;;;;;24.75;20.00;;;;;;;;5034195;28;45487;-72
2021/11/19 02:45:29;;;;;;;;;25.25;25.25;;;;;;;;5033708;28;47263;-73
2021/11/19 02:47:55;;;;;;;;;31.00;26.50;;;;;;;;5034152;28;45852;-73
2021/11/19 02:50:20;;;;;;;;;27.00;22.50;;;;;;;;5034295;28;45285;-73
2021/11/19 02:52:47;;;;;;;;;24.00;22.25;;;;;;;;5033437;28;45475;-73
2021/11/19 02:55:17;;;;;;;;;21.25;19.00;;;;;;;;5033527;28;47022;-73
2021/11/19 02:57:43;;;;;;;;;21.00;18.00;;;;;;;;5033622;28;45397;-72
2021/11/19 03:00:11;;;;;;;;;22.75;20.00;;;;;;;;5033286;28;45384;-72
2021/11/19 03:02:36;;;;;;;;;21.00;19.50;;;;;;;;5030238;28;45621;-72
2021/11/19 03:05:04;;;;;;;;;23.50;22.50;;;;;;;;5033646;28;45992;-73
2021/11/19 03:07:30;;;;;;;;;23.00;21.25;;;;;;;;5033731;28;45827;-72
2021/11/19 03:09:59;;;;;;;;;29.00;25.00;;;;;;;;5034078;28;45346;-73
2021/11/19 03:12:25;;;;;;;;;28.50;23.00;;;;;;;;5033576;28;45491;-73
2021/11/19 03:14:52;;;;;;;;;21.00;20.50;;;;;;;;5033758;28;46190;-73
2021/11/19 03:17:18;;;;;;;;;27.50;24.25;;;;;;;;5034184;28;45343;-73
2021/11/19 03:19:44;;;;;;;;;25.50;20.50;;;;;;;;5033457;28;45290;-73
2021/11/19 03:22:11;;;;;;;;;25.75;24.25;;;;;;;;5033697;28;45412;-73
2021/11/19 03:24:36;;;;;;;;;31.25;24.75;;;;;;;;5015620;28;48558;-73
2021/11/19 03:27:02;;;;;;;;;24.25;22.75;;;;;;;;5033707;28;45451;-72
2021/11/19 03:29:28;;;;;;;;;26.25;23.00;;;;;;;;5033922;28;45337;-73
2021/11/19 03:31:54;;;;;;;;;25.75;21.50;;;;;;;;5033114;28;45575;-72
2021/11/19 03:34:19;;;;;;;;;20.50;19.50;;;;;;;;5033368;28;46284;-73
2021/11/19 03:36:47;;;;;;;;;23.00;19.00;;;;;;;;5033448;28;45458;-73
2021/11/19 03:39:13;;;;;;;;;29.25;24.00;;;;;;;;5034018;28;45347;-73
2021/11/19 03:41:39;;;;;;;;;26.75;23.00;;;;;;;;5036311;28;45245;-72
2021/11/19 03:44:07;;;;;;;;;24.50;21.75;;;;;;;;5036919;28;45251;-72
2021/11/19 03:46:44;;;;;;;;;27.25;20.50;;;;;;;;5036920;28;45576;-72
2021/11/19 03:49:09;;;;;;;;;29.00;20.50;;;;;;;;5036970;28;45436;-72
2021/11/19 03:51:46;;;;;;;;;20.75;17.50;;;;;;;;5036981;28;45347;-73
2021/11/19 03:54:12;;;;;;;;;27.50;19.00;;;;;;;;5020973;28;46168;-72
2021/11/19 03:56:37;;;;;;;;;22.00;18.75;;;;;;;;5037402;28;45430;-72
2021/11/19 03:59:03;;;;;;;;;22.50;20.75;;;;;;;;5036181;28;45470;-72
2021/11/19 04:01:32;;;;;;;;;26.50;23.75;;;;;;;;5018705;28;46281;-72
2021/11/19 04:03:57;;;;;;;;;22.75;21.25;;;;;;;;5037044;28;45301;-72
2021/11/19 04:06:23;;;;;;;;;23.00;21.50;;;;;;;;5036926;28;45356;-72
2021/11/19 04:08:49;;;;;;;;;21.00;19.50;;;;;;;;5037342;28;45407;-72
2021/11/19 04:11:14;;;;;;;;;23.75;21.50;;;;;;;;5037347;28;45416;-72
2021/11/19 04:13:40;;;;;;;;;20.25;18.25;;;;;;;;5036173;28;47538;-72
2021/11/19 04:16:09;;;;;;;;;22.50;19.50;;;;;;;;5036337;28;45594;-72
2021/11/19 04:18:34;;;;;;;;;19.50;18.75;;;;;;;;5036747;28;47247;-72
2021/11/19 04:21:00;;;;;;;;;20.25;18.25;;;;;;;;5036461;28;45502;-72
2021/11/19 04:23:25;;;;;;;;;24.75;23.25;;;;;;;;5036729;28;45389;-72
2021/11/19 04:25:51;;;;;;;;;27.25;21.00;;;;;;;;5036096;28;45573;-71
2021/11/19 04:28:16;;;;;;;;;14.50;8.50;;;;;;;;5036375;28;45444;-73
2021/11/19 04:30:47;;;;;;;;;23.50;21.75;;;;;;;;5035675;28;45550;-73
2021/11/19 04:33:12;;;;;;;;;21.00;17.75;;;;;;;;5035877;28;47555;-72
2021/11/19 04:35:37;;;;;;;;;22.25;18.00;;;;;;;;5037065;28;45388;-73
2021/11/19 04:38:04;;;;;;;;;22.00;22.00;;;;;;;;5035918;28;45449;-72
2021/11/19 04:40:30;;;;;;;;;34.50;22.00;;;;;;;;5035431;28;45216;-73
2021/11/19 04:42:55;;;;;;;;;30.00;23.00;;;;;;;;5031148;28;46271;-70
2021/11/19 04:45:23;;;;;;;;;26.50;21.25;;;;;;;;5035126;28;45738;-73
2021/11/19 04:47:48;;;;;;;;;28.75;24.00;;;;;;;;5035906;28;45445;-72
2021/11/19 04:50:14;;;;;;;;;29.25;24.25;;;;;;;;5036008;28;45463;-73
2021/11/19 04:52:39;;;;;;;;;26.00;22.75;;;;;;;;5034996;28;45952;-71
2021/11/19 04:55:06;;;;;;;;;25.50;23.50;;;;;;;;5034772;28;45339;-72
2021/11/19 04:57:31;;;;;;;;;24.50;24.00;;;;;;;;5035143;28;45475;-72
2021/11/19 04:59:57;;;;;;;;;25.50;23.00;;;;;;;;5035580;28;45391;-72
2021/11/19 05:02:23;;;;;;;;;28.00;26.75;;;;;;;;5035504;28;47160;-73
2021/11/19 05:04:49;;;;;;;;;27.75;26.50;;;;;;;;5034905;28;45385;-72
2021/11/19 05:07:14;;;;;;;;;21.00;19.50;;;;;;;;5035270;28;45453;-72
2021/11/19 05:09:40;;;;;;;;;28.00;24.00;;;;;;;;5034168;28;45170;-72
2021/11/19 05:12:12;;;;;;;;;31.50;26.25;;;;;;;;5034538;28;45331;-73
2021/11/19 05:14:37;;;;;;;;;21.00;21.00;;;;;;;;5031486;28;45445;-71
2021/11/19 05:17:04;;;;;;;;;33.00;29.25;;;;;;;;5034198;28;45462;-72
2021/11/19 05:19:30;;;;;;;;;29.50;23.75;;;;;;;;5034042;28;45503;-72
2021/11/19 05:21:55;;;;;;;;;22.00;19.75;;;;;;;;5033569;28;47302;-72
2021/11/19 05:24:21;;;;;;;;;22.75;20.50;;;;;;;;5034291;28;45350;-72
2021/11/19 05:26:47;;;;;;;;;20.25;20.00;;;;;;;;5035982;28;45305;-72
2021/11/19 05:29:14;;;;;;;;;27.75;21.75;;;;;;;;5035318;28;45414;-71
2021/11/19 05:31:40;;;;;;;;;24.00;22.50;;;;;;;;5034246;28;45501;-72
2021/11/19 05:34:05;;;;;;;;;26.50;20.25;;;;;;;;5033483;28;45475;-72
2021/11/19 05:36:30;;;;;;;;;20.50;17.75;;;;;;;;5034888;28;45585;-72
2021/11/19 05:38:56;;;;;;;;;24.50;22.25;;;;;;;;5034300;28;45494;-72
2021/11/19 05:41:22;;;;;;;;;21.50;17.25;;;;;;;;5034942;28;46422;-72
2021/11/19 05:43:49;;;;;;;;;24.75;23.00;;;;;;;;5015654;28;45449;-72
2021/11/19 05:46:16;;;;;;;;;20.25;18.75;;;;;;;;5034181;28;45356;-72
2021/11/19 05:48:41;;;;;;;;;22.50;20.50;;;;;;;;5033825;28;45542;-73
2021/11/19 05:51:07;;;;;;;;;22.75;18.75;;;;;;;;5017577;28;46213;-72
2021/11/19 05:53:33;;;;;;;;;23.50;20.50;;;;;;;;5015561;28;45503;-72
2021/11/19 05:55:58;;;;;;;;;27.00;22.25;;;;;;;;5033611;28;45494;-73
2021/11/19 05:58:23;;;;;;;;;17.50;14.75;;;;;;;;5033075;28;45615;-75
2021/11/19 06:00:49;;;;;;;;;23.75;18.00;;;;;;;;5032403;28;46145;-73
2021/11/19 06:03:14;;;;;;;;;17.00;14.60;;;;;;;;5032278;28;45403;-73
2021/11/19 06:05:39;;;;;;;;;23.75;19.75;;;;;;;;5033196;28;45501;-73
2021/11/19 06:08:06;;;;;;;;;29.00;24.50;;;;;;;;5032620;28;45594;-74
2021/11/19 06:10:31;;;;;;;;;26.75;25.00;;;;;;;;5033254;28;46044;-73
2021/11/19 06:13:08;;;;;;;;;33.00;27.25;;;;;;;;5014933;28;45866;-73
2021/11/19 06:15:35;;;;;;;;;27.75;25.25;;;;;;;;5032742;28;45311;-72
2021/11/19 06:18:08;;;;;;;;;32.50;24.25;;;;;;;;5027420;28;45346;-73
2021/11/19 06:20:41;;;;;;;;;38.25;31.00;;;;;;;;5033153;28;46581;-73
2021/11/19 06:23:09;;;;;;;;;29.75;27.00;;;;;;;;5032629;28;45482;-73
2021/11/19 06:25:35;;;;;;;;;22.75;21.50;;;;;;;;5032788;28;45578;-73
2021/11/19 06:28:02;;;;;;;;;30.25;23.75;;;;;;;;5032834;28;45520;-73
2021/11/19 06:30:28;;;;;;;;;30.00;24.25;;;;;;;;5031628;28;47015;-74
2021/11/19 06:32:54;;;;;;;;;24.00;24.00;;;;;;;;5032656;28;45493;-73
2021/11/19 06:35:19;;;;;;;;;27.00;22.75;;;;;;;;5033060;28;45385;-73
2021/11/19 06:37:45;;;;;;;;;26.25;23.25;;;;;;;;5031824;28;45475;-73
2021/11/19 06:40:12;;;;;;;;;27.00;20.50;;;;;;;;5032015;28;47126;-73
2021/11/19 06:42:37;;;;;;;;;25.50;20.75;;;;;;;;5032032;28;45315;-73
2021/11/19 06:45:03;;;;;;;;;21.75;20.25;;;;;;;;5032914;28;45274;-73
2021/11/19 06:47:28;;;;;;;;;26.00;23.00;;;;;;;;5033007;28;45158;-73
2021/11/19 06:49:53;;;;;;;;;27.50;23.75;;;;;;;;5031732;28;47087;-73
2021/11/19 06:52:18;;;;;;;;;27.00;19.75;;;;;;;;5031987;28;45265;-73
2021/11/19 06:54:44;;;;;;;;;25.50;22.00;;;;;;;;5032087;28;45478;-70
2021/11/19 06:57:10;;;;;;;;;21.00;18.75;;;;;;;;5033172;28;45503;-73
2021/11/19 06:59:35;;;;;;;;;23.75;23.25;;;;;;;;5028447;28;46378;-74
2021/11/19 07:02:01;;;;;;;;;24.25;21.50;;;;;;;;5032456;28;45515;-73
2021/11/19 07:04:26;;;;;;;;;23.75;19.75;;;;;;;;5032573;28;45692;-73
2021/11/19 07:06:51;;;;;;;;;23.75;21.25;;;;;;;;5014165;28;45469;-73
2021/11/19 07:09:17;;;;;;;;;31.25;26.00;;;;;;;;5032227;28;46119;-73
2021/11/19 07:11:43;;;;;;;;;33.75;30.75;;;;;;;;5031992;28;45343;-73
2021/11/19 07:14:08;;;;;;;;;25.25;23.25;;;;;;;;5032452;28;45482;-73
2021/11/19 07:16:34;;;;;;;;;23.75;21.75;;;;;;;;5034227;28;45740;-72
2021/11/19 07:18:59;;;;;;;;;25.25;22.25;;;;;;;;5035564;28;45514;-73
2021/11/19 07:21:26;;;;;;;;;22.25;18.00;;;;;;;;5034158;28;45958;-73
2021/11/19 07:23:51;;;;;;;;;25.50;23.25;;;;;;;;5034843;28;45367;-73
2021/11/19 07:26:16;;;;;;;;;25.50;23.50;;;;;;;;5034885;28;45531;-73
2021/11/19 07:28:42;;;;;;;;;26.50;25.50;;;;;;;;5034573;28;46204;-74
2021/11/19 07:31:08;;;;;;;;;23.50;19.50;;;;;;;;5034789;28;45393;-72
2021/11/19 07:33:34;;;;;;;;;23.25;20.00;;;;;;;;5034809;28;45361;-73
2021/11/19 07:36:00;;;;;;;;;28.50;22.00;;;;;;;;5034348;28;45529;-74
2021/11/19 07:38:26;;;;;;;;;25.75;20.75;;;;;;;;5034626;28;46404;-74
2021/11/19 07:40:52;;;;;;;;;22.00;21.00;;;;;;;;5034923;28;45364;-72
2021/11/19 07:43:18;;;;;;;;;27.25;27.00;;;;;;;;5035352;28;45609;-74
2021/11/19 07:45:43;;;;;;;;;20.00;20.00;;;;;;;;5035316;28;45615;-74
2021/11/19 07:48:14;;;;;;;;;21.25;21.00;;;;;;;;5034763;28;45428;-75
2021/11/19 07:50:41;;;;;;;;;20.75;19.00;;;;;;;;5031205;28;45441;-74
2021/11/19 07:53:06;;;;;;;;;22.75;19.75;;;;;;;;5016066;28;45428;-74
2021/11/19 07:55:33;;;;;;;;;27.25;23.25;;;;;;;;5034311;28;45272;-73
2021/11/19 07:57:58;;;;;;;;;21.50;19.75;;;;;;;;5034292;28;47576;-73
2021/11/19 08:00:26;;;;;;;;;20.00;19.00;;;;;;;;5034765;28;45388;-73
2021/11/19 08:02:52;;;;;;;;;27.00;22.00;;;;;;;;5035005;28;45394;-73
2021/11/19 08:05:17;;;;;;;;;32.50;30.25;;;;;;;;5034343;28;45359;-72
2021/11/19 08:07:42;;;;;;;;;21.00;19.25;;;;;;;;5034300;28;45412;-74
2021/11/19 08:10:08;;;;;;;;;24.50;22.00;;;;;;;;5034567;28;45425;-73
2021/11/19 08:12:33;;;;;;;;;22.25;21.50;;;;;;;;5034000;28;45402;-73
2021/11/19 08:14:59;;;;;;;;;20.00;20.00;;;;;;;;5034144;28;45258;-73
2021/11/19 08:17:32;;;;;;;;;18.50;17.75;;;;;;;;5034651;28;47096;-73
2021/11/19 08:19:58;;;;;;;;;21.75;20.75;;;;;;;;5034167;28;45390;-73
2021/11/19 08:22:23;;;;;;;;;18.25;17.75;;;;;;;;5034536;28;45372;-74
2021/11/19 08:24:49;;;;;;;;;26.25;20.25;;;;;;;;5035267;28;45454;-73
2021/11/19 08:27:16;;;;;;;;;24.75;23.25;;;;;;;;5033673;28;45227;-72
2021/11/19 08:29:43;;;;;;;;;20.25;16.75;;;;;;;;5034431;28;45361;-74
2021/11/19 08:32:09;;;;;;;;;33.25;29.00;;;;;;;;5033937;28;45443;-73
2021/11/19 08:34:35;;;;;;;;;24.00;22.00;;;;;;;;5033896;28;45420;-73
2021/11/19 08:37:01;;;;;;;;;18.00;18.00;;;;;;;;5033769;28;46051;-73
2021/11/19 08:39:26;;;;;;;;;21.50;18.75;;;;;;;;5033611;28;45397;-74
2021/11/19 08:41:53;;;;;;;;;31.00;22.50;;;;;;;;5034665;28;45412;-74
2021/11/19 08:44:19;;;;;;;;;24.00;19.75;;;;;;;;5034269;28;45412;-72
2021/11/19 08:46:45;;;;;;;;;22.00;19.50;;;;;;;;5033922;28;45566;-73
2021/11/19 08:49:12;;;;;;;;;27.25;24.25;;;;;;;;5033761;28;45596;-72
2021/11/19 08:51:37;;;;;;;;;20.75;20.75;;;;;;;;5034100;28;45316;-73
2021/11/19 08:54:04;;;;;;;;;29.75;26.50;;;;;;;;5034011;28;45756;-73
2021/11/19 08:56:30;;;;;;;;;19.00;18.00;;;;;;;;5034828;28;46522;-73
2021/11/19 08:58:56;;;;;;;;;31.25;28.50;;;;;;;;5034072;28;45509;-74
2021/11/19 09:01:22;;;;;;;;;22.25;20.25;;;;;;;;5033561;28;45511;-74
2021/11/19 09:03:48;;;;;;;;;26.75;20.00;;;;;;;;5033480;28;45435;-73
2021/11/19 09:06:14;;;;;;;;;33.75;30.50;;;;;;;;5033505;28;46099;-73
2021/11/19 09:08:41;;;;;;;;;28.50;21.00;;;;;;;;5034390;28;45471;-73
2021/11/19 09:11:07;;;;;;;;;25.75;21.75;;;;;;;;5034009;28;45381;-73
2021/11/19 09:13:33;;;;;;;;;26.50;23.50;;;;;;;;5033568;28;45553;-74
2021/11/19 09:15:58;;;;;;;;;25.50;22.75;;;;;;;;5033357;28;46175;-72
2021/11/19 09:18:24;;;;;;;;;33.00;30.00;;;;;;;;5033606;28;45733;-73
2021/11/19 09:21:28;;;;;;;;;25.50;19.00;;;;;;;;5033705;28;45372;-73
2021/11/19 09:23:59;;;;;;;;;23.25;20.25;;;;;;;;4950828;28;45529;-73
2021/11/19 09:26:36;;;;;;;;;21.75;21.50;;;;;;;;4952704;28;46619;-72
2021/11/19 09:29:05;;;;;;;;;27.75;25.50;;;;;;;;4951920;28;46025;-71
2021/11/19 09:31:31;;;;;;;;;24.00;22.75;;;;;;;;4951967;28;45483;-73
2021/11/19 09:33:56;;;;;;;;;25.75;24.00;;;;;;;;4952123;28;45452;-73
2021/11/19 09:36:21;;;;;;;;;29.50;26.75;;;;;;;;4951083;28;46393;-72
2021/11/19 09:38:47;;;;;;;;;31.75;26.25;;;;;;;;4934372;28;45414;-73
2021/11/19 09:41:26;;;;;;;;;36.50;27.75;;;;;;;;4938337;28;45315;-73
2021/11/19 09:44:13;;;;;;;;;28.75;26.50;;;;;;;;4936687;28;45530;-72
2021/11/19 09:46:39;;;;;;;;;25.75;22.50;;;;;;;;4942621;28;46236;-72
2021/11/19 09:49:27;;;;;;;;;30.50;25.75;;;;;;;;4946414;28;45495;-74
2021/11/19 09:52:01;;;;;;;;;28.25;28.25;;;;;;;;4937159;28;45404;-73
2021/11/19 09:54:42;;;;;;;;;40.25;32.75;;;;;;;;4960246;28;45476;-73
2021/11/19 09:57:07;;;;;;;;;52.25;39.50;;;;;;;;4993950;28;47805;-73
2021/11/19 09:59:32;;;;;;;;;44.25;35.50;;;;;;;;4998461;28;45508;-73
2021/11/19 10:02:06;;;;;;;;;40.00;31.75;;;;;;;;4997623;28;45559;-73
2021/11/19 10:04:44;;;;;;;;;39.00;31.25;;;;;;;;4997788;28;45557;-73
2021/11/19 10:07:12;;;;;;;;;42.75;36.75;;;;;;;;4997433;28;46701;-73
2021/11/19 10:09:43;;;;;;;;;45.75;36.50;;;;;;;;4996911;28;45310;-73
2021/11/19 10:12:08;;;;;;;;;51.00;40.75;;;;;;;;4978199;28;45403;-72
2021/11/19 10:14:52;;;;;;;;;47.50;36.75;;;;;;;;4998010;28;45529;-73
2021/11/19 10:17:35;;;;;;;;;45.75;37.25;;;;;;;;4997861;28;45422;-73
2021/11/19 10:20:07;;;;;;;;;38.75;34.00;;;;;;;;4997235;28;45477;-72
2021/11/19 10:22:38;;;;;;;;;42.00;37.50;;;;;;;;4995525;28;45439;-73
2021/11/19 10:25:06;;;;;;;;;46.50;39.75;;;;;;;;4995972;28;45584;-72
2021/11/19 10:27:36;;;;;;;;;45.25;38.25;;;;;;;;4996498;28;47650;-72
2021/11/19 10:30:21;;;;;;;;;46.75;40.50;;;;;;;;4993511;28;45401;-73
2021/11/19 10:32:47;;;;;;;;;44.50;35.25;;;;;;;;5006677;28;45364;-74
2021/11/19 10:35:33;;;;;;;;;40.25;35.00;;;;;;;;4997665;28;45563;-73
2021/11/19 10:38:18;;;;;;;;;49.75;38.25;;;;;;;;5020985;28;46110;-72
2021/11/19 10:41:02;;;;;;;;;51.50;39.00;;;;;;;;5031829;28;45533;-72
2021/11/19 10:44:00;;;;;;;;;54.25;42.50;;;;;;;;5031097;28;45356;-72
2021/11/19 10:46:37;;;;;;;;;54.25;43.00;;;;;;;;4969993;28;45545;-73
2021/11/19 10:49:21;;;;;;;;;52.50;42.75;;;;;;;;4970662;28;46953;-73
2021/11/19 10:51:58;;;;;;;;;55.50;42.25;;;;;;;;4970511;28;45463;-72
2021/11/19 10:54:52;;;;;;;;;57.50;45.25;;;;;;;;4970896;28;45343;-72
2021/11/19 10:57:20;;;;;;;;;60.75;46.50;;;;;;;;4956166;28;45524;-74
2021/11/19 11:00:05;;;;;;;;;49.50;41.75;;;;;;;;4970826;28;45676;-74
2021/11/19 11:02:35;;;;;;;;;51.75;42.00;;;;;;;;4970332;28;45403;-73
2021/11/19 11:05:09;;;;;;;;;53.50;41.75;;;;;;;;4970264;28;45373;-72
2021/11/19 11:07:39;;;;;;;;;59.25;45.25;;;;;;;;4970131;28;45812;-74
2021/11/19 11:10:04;;;;;;;;;54.75;43.00;;;;;;;;4969212;28;47575;-74
2021/11/19 11:12:29;;;;;;;;;46.75;41.00;;;;;;;;4969147;28;45556;-73
2021/11/19 11:15:13;;;;;;;;;53.25;41.00;;;;;;;;4970333;28;45482;-74
2021/11/19 11:17:52;;;;;;;;;50.25;40.25;;;;;;;;4966586;28;45392;-72
2021/11/19 11:20:21;;;;;;;;;54.75;42.25;;;;;;;;4970409;28;47261;-74
2021/11/19 11:22:54;;;;;;;;;53.75;41.00;;;;;;;;5019347;28;45643;-74
2021/11/19 11:25:39;;;;;;;;;49.75;40.75;;;;;;;;5032240;28;45415;-72
2021/11/19 11:28:04;;;;;;;;;46.75;39.00;;;;;;;;5031832;28;45613;-73
2021/11/19 11:30:48;;;;;;;;;51.25;43.75;;;;;;;;5031476;28;45521;-73
2021/11/19 11:33:17;;;;;;;;;54.00;42.75;;;;;;;;5015223;28;45629;-73
2021/11/19 11:36:07;;;;;;;;;56.25;44.75;;;;;;;;5031190;28;45290;-71
2021/11/19 11:38:51;;;;;;;;;58.50;43.00;;;;;;;;5031392;28;45329;-73
2021/11/19 11:41:22;;;;;;;;;48.75;40.00;;;;;;;;5031327;28;46373;-74
2021/11/19 11:44:06;;;;;;;;;43.75;36.50;;;;;;;;5030995;28;45414;-75
2021/11/19 11:46:33;;;;;;;;;57.00;42.50;;;;;;;;5031142;28;45645;-74
2021/11/19 11:49:03;;;;;;;;;53.50;45.25;;;;;;;;5031050;28;45510;-73
2021/11/19 11:51:55;;;;;;;;;49.25;41.50;;;;;;;;5031247;28;45566;-75
2021/11/19 11:54:43;;;;;;;;;47.75;39.75;;;;;;;;5012572;28;45214;-74
2021/11/19 11:57:20;;;;;;;;;44.75;37.75;;;;;;;;5014194;28;45734;-74
2021/11/19 11:59:48;;;;;;;;;51.00;40.50;;;;;;;;5028047;28;45472;-74
2021/11/19 12:02:27;;;;;;;;;46.25;38.75;;;;;;;;5032427;28;47191;-74
2021/11/19 12:05:12;;;;;;;;;45.00;38.50;;;;;;;;5034881;28;45393;-73
2021/11/19 12:07:53;;;;;;;;;57.25;44.75;;;;;;;;5022976;28;45328;-75
2021/11/19 12:10:21;;;;;;;;;43.25;35.25;;;;;;;;5015668;28;53340;-73
2021/11/19 12:12:56;;;;;;;;;46.50;35.50;;;;;;;;5034489;28;46712;-73
2021/11/19 12:15:27;;;;;;;;;52.50;42.75;;;;;;;;5016415;28;46103;-73
2021/11/19 12:17:53;;;;;;;;;44.25;38.25;;;;;;;;5035377;28;45399;-75
2021/11/19 12:20:23;;;;;;;;;47.75;39.25;;;;;;;;5035387;28;45592;-74
2021/11/19 12:22:58;;;;;;;;;49.00;38.00;;;;;;;;5034070;28;45566;-73
2021/11/19 12:25:37;;;;;;;;;44.25;36.75;;;;;;;;5033508;28;45576;-73
2021/11/19 12:28:08;;;;;;;;;45.75;37.00;;;;;;;;5034358;28;45408;-75
2021/11/19 12:30:46;;;;;;;;;37.25;37.25;;;;;;;;5034291;28;45319;-73
2021/11/19 12:33:25;;;;;;;;;43.50;37.25;;;;;;;;5018802;28;46349;-73
2021/11/19 12:35:50;;;;;;;;;46.50;40.00;;;;;;;;5036611;28;45946;-72
2021/11/19 12:38:19;;;;;;;;;44.25;38.00;;;;;;;;5034057;28;45458;-73
2021/11/19 12:40:47;;;;;;;;;48.75;39.00;;;;;;;;5033037;28;45328;-73
2021/11/19 12:43:31;;;;;;;;;48.75;39.75;;;;;;;;5033486;28;47200;-74
2021/11/19 12:46:05;;;;;;;;;47.00;37.25;;;;;;;;5033338;28;45296;-73
2021/11/19 12:49:06;;;;;;;;;23.25;19.50;;;;;;;;5033199;28;45536;-73
2021/11/19 12:51:34;;;;;;;;;9.00;7.00;;;;;;;;4939805;28;45442;-73
2021/11/19 12:53:59;;;;;;;;;18.00;18.00;;;;;;;;4951735;28;46261;-73
2021/11/19 12:56:40;;;;;;;;;24.25;23.00;;;;;;;;4938022;28;45610;-73
2021/11/19 12:59:05;;;;;;;;;29.50;25.00;;;;;;;;4952757;28;45549;-73
2021/11/19 13:01:33;;;;;;;;;21.50;20.75;;;;;;;;4952648;28;45316;-73
2021/11/19 13:04:17;;;;;;;;;30.50;23.75;;;;;;;;4952026;28;46222;-73
2021/11/19 13:07:00;;;;;;;;;24.25;20.25;;;;;;;;4952362;28;45490;-72
2021/11/19 13:09:31;;;;;;;;;27.75;21.75;;;;;;;;4951447;28;45510;-74
2021/11/19 13:12:15;;;;;;;;;22.75;21.00;;;;;;;;4952146;28;45400;-74
2021/11/19 13:14:43;;;;;;;;;21.75;18.50;;;;;;;;4948677;28;46375;-72
2021/11/19 13:17:12;;;;;;;;;18.00;14.25;;;;;;;;4952273;28;45485;-72
2021/11/19 13:19:37;;;;;;;;;9.25;8.25;;;;;;;;4952321;28;45386;-73
2021/11/19 13:22:20;;;;;;;;;14.25;14.25;;;;;;;;4952412;28;45523;-73
2021/11/19 13:24:53;;;;;;;;;13.00;10.25;;;;;;;;4963293;28;46426;-72
2021/11/19 13:27:18;;;;;;;;;15.00;11.25;;;;;;;;5033917;28;45494;-72
2021/11/19 13:29:47;;;;;;;;;14.25;14.25;;;;;;;;5034638;28;45296;-73
2021/11/19 13:32:19;;;;;;;;;20.00;18.25;;;;;;;;5032642;28;45352;-72
2021/11/19 13:34:48;;;;;;;;;15.25;14.00;;;;;;;;5033543;28;46240;-73
2021/11/19 13:37:18;;;;;;;;;11.00;11.00;;;;;;;;5011298;28;45415;-72
2021/11/19 13:39:44;;;;;;;;;15.25;13.50;;;;;;;;5013308;28;45446;-72
2021/11/19 13:42:11;;;;;;;;;18.50;13.75;;;;;;;;5012951;28;45440;-73
2021/11/19 13:44:58;;;;;;;;;18.25;15.00;;;;;;;;5008783;28;47381;-75
2021/11/19 13:47:27;;;;;;;;;17.50;14.75;;;;;;;;5011937;28;45526;-73
2021/11/19 13:50:02;;;;;;;;;24.00;17.50;;;;;;;;5013095;28;45454;-73
2021/11/19 13:52:29;;;;;;;;;13.50;13.50;;;;;;;;5012961;28;45610;-73
2021/11/19 13:55:24;;;;;;;;;20.25;15.75;;;;;;;;5012902;28;48276;-73
2021/11/19 13:57:53;;;;;;;;;14.75;14.75;;;;;;;;5004354;28;45328;-72
2021/11/19 14:00:37;;;;;;;;;15.50;15.25;;;;;;;;5013374;28;45362;-72
2021/11/19 14:03:03;;;;;;;;;18.25;16.00;;;;;;;;5012421;28;45400;-72
2021/11/19 14:05:36;;;;;;;;;16.50;12.00;;;;;;;;5012953;28;45620;-72
2021/11/19 14:08:15;;;;;;;;;17.00;15.75;;;;;;;;5010850;28;45781;-72
2021/11/19 14:10:43;;;;;;;;;14.25;12.75;;;;;;;;5012465;28;45425;-73
2021/11/19 14:13:22;;;;;;;;;14.00;11.50;;;;;;;;5012106;28;45415;-72
2021/11/19 14:16:08;;;;;;;;;30.50;28.75;;;;;;;;5011661;28;46445;-73
2021/11/19 14:18:51;;;;;;;;;26.50;26.25;;;;;;;;5012368;28;45543;-73
2021/11/19 14:24:10;;;;;;;;;27.75;26.50;;;;;;;;5012700;28;45303;-72
2021/11/19 14:26:39;;;;;;;;;25.75;22.00;;;;;;;;5013278;28;46140;-72
2021/11/19 14:29:08;;;;;;;;;19.75;18.75;;;;;;;;5011858;28;45482;-72
2021/11/19 14:31:40;;;;;;;;;25.50;21.50;;;;;;;;5012055;28;45394;-72
2021/11/19 14:34:11;;;;;;;;;22.50;22.50;;;;;;;;5012253;28;45438;-72